NDF57EL EDDL-EDDM
Flight info
| Callsign | NDF57EL |
|---|---|
| Flight time | 0h 46m |
| Altitude | 35000 |
| Route | DODEN7Z DODEN Y853 BOMBI T104 HAREM/N0416F270 T104 ROKIL ROKIL1A |
| Aircraft | A321/M-SDE3FGHIRWY/LB1 |
Departure
| Time | 2026-04-30 18:33 |
|---|---|
| Airport | Düsseldorf Airport (EDDL) |
Arrival
| Time | 2026-04-30 19:20 |
|---|---|
| Airport | Munich Airport (EDDM) |
| Time | Latitude | Longitude | Altitude | Speed | Heading |
|---|---|---|---|---|---|
| 2026-04-30 18:06 | 51.28109 | 6.76540 | 128 ft | 0 kts | 96° |
| 2026-04-30 18:22 | 51.28111 | 6.76517 | 124 ft | 4 kts | 107° |
| 2026-04-30 18:23 | 51.28122 | 6.76478 | 125 ft | 4 kts | 115° |
| 2026-04-30 18:23 | 51.28127 | 6.76446 | 125 ft | 4 kts | 101° |
| 2026-04-30 18:23 | 51.28136 | 6.76416 | 123 ft | 4 kts | 170° |
| 2026-04-30 18:23 | 51.28160 | 6.76423 | 126 ft | 4 kts | 196° |
| 2026-04-30 18:24 | 51.28171 | 6.76428 | 124 ft | 0 kts | 186° |
| 2026-04-30 18:25 | 51.28166 | 6.76427 | 125 ft | 3 kts | 186° |
| 2026-04-30 18:25 | 51.28139 | 6.76391 | 124 ft | 4 kts | 251° |
| 2026-04-30 18:26 | 51.28126 | 6.76212 | 127 ft | 11 kts | 233° |
| 2026-04-30 18:26 | 51.28106 | 6.76167 | 126 ft | 2 kts | 235° |
| 2026-04-30 18:26 | 51.28102 | 6.76156 | 126 ft | 1 kts | 236° |
| 2026-04-30 18:27 | 51.28087 | 6.75963 | 126 ft | 13 kts | 266° |
| 2026-04-30 18:27 | 51.28044 | 6.75839 | 124 ft | 11 kts | 232° |
| 2026-04-30 18:28 | 51.27963 | 6.75677 | 128 ft | 0 kts | 233° |
| 2026-04-30 18:28 | 51.27960 | 6.75671 | 125 ft | 2 kts | 233° |
| 2026-04-30 18:28 | 51.27956 | 6.75569 | 128 ft | 7 kts | 300° |
| 2026-04-30 18:29 | 51.27973 | 6.75542 | 126 ft | 0 kts | 323° |
| 2026-04-30 18:29 | 51.27984 | 6.75531 | 125 ft | 0 kts | 328° |
| 2026-04-30 18:31 | 51.28012 | 6.75510 | 125 ft | 14 kts | 341° |
| 2026-04-30 18:31 | 51.28126 | 6.75552 | 126 ft | 0 kts | 47° |
| 2026-04-30 18:32 | 51.28224 | 6.75758 | 124 ft | 61 kts | 54° |
| 2026-04-30 18:33 | 51.28635 | 6.76628 | 127 ft | 131 kts | 52° |
| 2026-04-30 18:33 | 51.29887 | 6.79225 | 1357 ft | 149 kts | 58° |
| 2026-04-30 18:33 | 51.30509 | 6.80537 | 2072 ft | 151 kts | 59° |
| 2026-04-30 18:34 | 51.31180 | 6.81974 | 2431 ft | 172 kts | 59° |
| 2026-04-30 18:34 | 51.32785 | 6.85401 | 2924 ft | 217 kts | 58° |
| 2026-04-30 18:34 | 51.33736 | 6.87458 | 3218 ft | 242 kts | 58° |
| 2026-04-30 18:35 | 51.34729 | 6.89699 | 3931 ft | 251 kts | 62° |
| 2026-04-30 18:35 | 51.35283 | 6.92296 | 4710 ft | 248 kts | 92° |
| 2026-04-30 18:35 | 51.35085 | 6.95029 | 5567 ft | 249 kts | 102° |
| 2026-04-30 18:36 | 51.34518 | 7.00546 | 7272 ft | 254 kts | 101° |
| 2026-04-30 18:36 | 51.34231 | 7.03352 | 8084 ft | 257 kts | 101° |
| 2026-04-30 18:36 | 51.33653 | 7.09035 | 9722 ft | 264 kts | 100° |
| 2026-04-30 18:37 | 51.33357 | 7.11953 | 10513 ft | 268 kts | 100° |
| 2026-04-30 18:37 | 51.32943 | 7.14973 | 10843 ft | 290 kts | 108° |
| 2026-04-30 18:37 | 51.32096 | 7.18029 | 11037 ft | 313 kts | 119° |
| 2026-04-30 18:37 | 51.30752 | 7.20900 | 11396 ft | 331 kts | 131° |
| 2026-04-30 18:38 | 51.29098 | 7.23501 | 12046 ft | 337 kts | 133° |
| 2026-04-30 18:38 | 51.27417 | 7.26149 | 12751 ft | 341 kts | 133° |
| 2026-04-30 18:38 | 51.25724 | 7.28834 | 13459 ft | 345 kts | 133° |
| 2026-04-30 18:38 | 51.24035 | 7.31517 | 14147 ft | 349 kts | 133° |
| 2026-04-30 18:39 | 51.22301 | 7.34262 | 14775 ft | 353 kts | 133° |
| 2026-04-30 18:39 | 51.20542 | 7.37031 | 15415 ft | 357 kts | 133° |
| 2026-04-30 18:39 | 51.18764 | 7.39821 | 16056 ft | 361 kts | 133° |
| 2026-04-30 18:39 | 51.16965 | 7.42639 | 16721 ft | 365 kts | 133° |
| 2026-04-30 18:40 | 51.15144 | 7.45489 | 17356 ft | 368 kts | 133° |
| 2026-04-30 18:40 | 51.13302 | 7.48348 | 17987 ft | 372 kts | 133° |
| 2026-04-30 18:40 | 51.11424 | 7.51226 | 18626 ft | 376 kts | 133° |
| 2026-04-30 18:40 | 51.09522 | 7.54116 | 19175 ft | 380 kts | 134° |
| 2026-04-30 18:41 | 51.07600 | 7.57032 | 19707 ft | 384 kts | 134° |
| 2026-04-30 18:41 | 51.05658 | 7.59984 | 20188 ft | 388 kts | 133° |
| 2026-04-30 18:41 | 51.03737 | 7.62905 | 20347 ft | 388 kts | 133° |
| 2026-04-30 18:41 | 51.01776 | 7.65881 | 20893 ft | 391 kts | 133° |
| 2026-04-30 18:42 | 50.99801 | 7.68874 | 21485 ft | 394 kts | 133° |
| 2026-04-30 18:42 | 50.95645 | 7.74646 | 22571 ft | 403 kts | 143° |
| 2026-04-30 18:42 | 50.93260 | 7.77023 | 23100 ft | 407 kts | 145° |
| 2026-04-30 18:45 | 50.68383 | 8.01397 | 27309 ft | 436 kts | 145° |
| 2026-04-30 18:45 | 50.65789 | 8.03922 | 27687 ft | 439 kts | 145° |
| 2026-04-30 18:45 | 50.63184 | 8.06453 | 28062 ft | 442 kts | 145° |
| 2026-04-30 18:46 | 50.60576 | 8.09025 | 28430 ft | 443 kts | 142° |
| 2026-04-30 18:46 | 50.58156 | 8.12026 | 28782 ft | 444 kts | 137° |
| 2026-04-30 18:46 | 50.55817 | 8.15116 | 29153 ft | 446 kts | 137° |
| 2026-04-30 18:46 | 50.53433 | 8.18259 | 29521 ft | 449 kts | 137° |
| 2026-04-30 18:47 | 50.51029 | 8.21415 | 29898 ft | 451 kts | 137° |
| 2026-04-30 18:47 | 50.48611 | 8.24581 | 30261 ft | 454 kts | 137° |
| 2026-04-30 18:47 | 50.46184 | 8.27753 | 30700 ft | 454 kts | 137° |
| 2026-04-30 18:47 | 50.43761 | 8.30913 | 31133 ft | 453 kts | 137° |
| 2026-04-30 18:48 | 50.41337 | 8.34065 | 31566 ft | 452 kts | 137° |
| 2026-04-30 18:48 | 50.38913 | 8.37209 | 31979 ft | 452 kts | 137° |
| 2026-04-30 18:48 | 50.36490 | 8.40349 | 32398 ft | 452 kts | 137° |
| 2026-04-30 18:48 | 50.34063 | 8.43494 | 32819 ft | 452 kts | 136° |
| 2026-04-30 18:49 | 50.31646 | 8.46625 | 33253 ft | 451 kts | 136° |
| 2026-04-30 18:49 | 50.29266 | 8.49709 | 33679 ft | 450 kts | 136° |
| 2026-04-30 18:49 | 50.26853 | 8.52828 | 34102 ft | 450 kts | 136° |
| 2026-04-30 18:49 | 50.24441 | 8.55942 | 34491 ft | 450 kts | 136° |
| 2026-04-30 18:50 | 50.22032 | 8.59047 | 34843 ft | 449 kts | 136° |
| 2026-04-30 18:50 | 50.19621 | 8.62149 | 35198 ft | 449 kts | 136° |
| 2026-04-30 18:50 | 50.17215 | 8.65244 | 35331 ft | 449 kts | 136° |
| 2026-04-30 18:51 | 50.12414 | 8.71394 | 35356 ft | 445 kts | 136° |
| 2026-04-30 18:51 | 50.07671 | 8.77461 | 35354 ft | 444 kts | 136° |
| 2026-04-30 18:52 | 50.02952 | 8.83638 | 35355 ft | 442 kts | 134° |
| 2026-04-30 18:52 | 49.98421 | 8.90098 | 35352 ft | 441 kts | 133° |
| 2026-04-30 18:53 | 49.93936 | 8.96612 | 35351 ft | 442 kts | 133° |
| 2026-04-30 18:53 | 49.89401 | 9.03044 | 35352 ft | 442 kts | 134° |
| 2026-04-30 18:54 | 49.84861 | 9.09387 | 35373 ft | 442 kts | 134° |
| 2026-04-30 18:54 | 49.80287 | 9.15772 | 35365 ft | 443 kts | 133° |
| 2026-04-30 18:55 | 49.75714 | 9.22155 | 35355 ft | 443 kts | 133° |
| 2026-04-30 18:55 | 49.69612 | 9.30659 | 35364 ft | 444 kts | 133° |
| 2026-04-30 18:56 | 49.61985 | 9.41278 | 35367 ft | 442 kts | 130° |
| 2026-04-30 18:57 | 49.55904 | 9.51881 | 35381 ft | 440 kts | 126° |
| 2026-04-30 18:57 | 49.51859 | 9.58976 | 35378 ft | 441 kts | 126° |
| 2026-04-30 18:58 | 49.46460 | 9.68402 | 35373 ft | 441 kts | 126° |
| 2026-04-30 18:59 | 49.40365 | 9.78991 | 35373 ft | 441 kts | 126° |
| 2026-04-30 19:00 | 49.34253 | 9.89576 | 34942 ft | 444 kts | 126° |
| 2026-04-30 19:00 | 49.32207 | 9.93106 | 34456 ft | 442 kts | 126° |
| 2026-04-30 19:00 | 49.28132 | 10.00113 | 33387 ft | 439 kts | 126° |
| 2026-04-30 19:01 | 49.24090 | 10.07048 | 32337 ft | 439 kts | 126° |
| 2026-04-30 19:01 | 49.22054 | 10.10535 | 31824 ft | 440 kts | 126° |
| 2026-04-30 19:02 | 49.17974 | 10.17513 | 30842 ft | 440 kts | 126° |
| 2026-04-30 19:02 | 49.13886 | 10.24488 | 29803 ft | 442 kts | 126° |
| 2026-04-30 19:03 | 49.09712 | 10.31331 | 28717 ft | 438 kts | 128° |
| 2026-04-30 19:03 | 49.05513 | 10.37979 | 27554 ft | 432 kts | 129° |
| 2026-04-30 19:04 | 49.01400 | 10.44499 | 26302 ft | 427 kts | 129° |
| 2026-04-30 19:04 | 48.97332 | 10.50992 | 25082 ft | 421 kts | 129° |
| 2026-04-30 19:05 | 48.93320 | 10.57398 | 23890 ft | 416 kts | 129° |
| 2026-04-30 19:05 | 48.89350 | 10.63723 | 22564 ft | 411 kts | 129° |
| 2026-04-30 19:06 | 48.85411 | 10.69967 | 21263 ft | 407 kts | 129° |
| 2026-04-30 19:06 | 48.83454 | 10.73064 | 20626 ft | 405 kts | 129° |
| 2026-04-30 19:06 | 48.79630 | 10.79104 | 19422 ft | 392 kts | 129° |
| 2026-04-30 19:07 | 48.75847 | 10.85053 | 18178 ft | 391 kts | 129° |
| 2026-04-30 19:07 | 48.73958 | 10.88008 | 17498 ft | 390 kts | 129° |
| 2026-04-30 19:08 | 48.70198 | 10.93879 | 16228 ft | 386 kts | 130° |
| 2026-04-30 19:08 | 48.66475 | 10.99679 | 14988 ft | 382 kts | 130° |
| 2026-04-30 19:08 | 48.64649 | 11.02526 | 14374 ft | 368 kts | 130° |
| 2026-04-30 19:09 | 48.61128 | 11.07785 | 13259 ft | 352 kts | 139° |
| 2026-04-30 19:09 | 48.59125 | 11.09831 | 12343 ft | 341 kts | 141° |
| 2026-04-30 19:09 | 48.57492 | 11.12088 | 11988 ft | 309 kts | 129° |
| 2026-04-30 19:10 | 48.54695 | 11.16604 | 10953 ft | 285 kts | 129° |
| 2026-04-30 19:10 | 48.52016 | 11.20925 | 9975 ft | 281 kts | 130° |
| 2026-04-30 19:11 | 48.50672 | 11.23099 | 9456 ft | 285 kts | 130° |
| 2026-04-30 19:11 | 48.47944 | 11.27512 | 8428 ft | 290 kts | 130° |
| 2026-04-30 19:11 | 48.46559 | 11.29741 | 7908 ft | 292 kts | 131° |
| 2026-04-30 19:12 | 48.45176 | 11.31966 | 7409 ft | 288 kts | 131° |
| 2026-04-30 19:12 | 48.43846 | 11.34101 | 6922 ft | 272 kts | 131° |
| 2026-04-30 19:12 | 48.42583 | 11.36125 | 6414 ft | 259 kts | 131° |
| 2026-04-30 19:13 | 48.40274 | 11.39821 | 5616 ft | 230 kts | 130° |
| 2026-04-30 19:13 | 48.38198 | 11.43143 | 4848 ft | 206 kts | 128° |
| 2026-04-30 19:13 | 48.37241 | 11.44671 | 4475 ft | 197 kts | 128° |
| 2026-04-30 19:14 | 48.36313 | 11.46158 | 4094 ft | 194 kts | 128° |
| 2026-04-30 19:14 | 48.35407 | 11.47608 | 4021 ft | 182 kts | 128° |
| 2026-04-30 19:14 | 48.34685 | 11.49058 | 4053 ft | 167 kts | 113° |
| 2026-04-30 19:14 | 48.34372 | 11.50589 | 4020 ft | 145 kts | 91° |
| 2026-04-30 19:15 | 48.34413 | 11.52067 | 4013 ft | 139 kts | 87° |
| 2026-04-30 19:15 | 48.34579 | 11.54902 | 4022 ft | 136 kts | 85° |
| 2026-04-30 19:15 | 48.34681 | 11.56310 | 4016 ft | 135 kts | 85° |
| 2026-04-30 19:16 | 48.34787 | 11.57715 | 3954 ft | 135 kts | 84° |
| 2026-04-30 19:16 | 48.34896 | 11.59118 | 3829 ft | 135 kts | 84° |
| 2026-04-30 19:16 | 48.35116 | 11.61929 | 3494 ft | 136 kts | 84° |
| 2026-04-30 19:17 | 48.35227 | 11.63332 | 3318 ft | 135 kts | 85° |
| 2026-04-30 19:17 | 48.35444 | 11.66104 | 2949 ft | 133 kts | 85° |
| 2026-04-30 19:17 | 48.35551 | 11.67467 | 2773 ft | 134 kts | 85° |
| 2026-04-30 19:18 | 48.35734 | 11.69807 | 2437 ft | 134 kts | 84° |
| 2026-04-30 19:18 | 48.35878 | 11.71651 | 2166 ft | 134 kts | 84° |
| 2026-04-30 19:18 | 48.35988 | 11.73041 | 1986 ft | 134 kts | 84° |
| 2026-04-30 19:19 | 48.36098 | 11.74416 | 1852 ft | 134 kts | 84° |
| 2026-04-30 19:19 | 48.36205 | 11.75798 | 1657 ft | 133 kts | 84° |
| 2026-04-30 19:19 | 48.36403 | 11.78367 | 1485 ft | 96 kts | 84° |
| 2026-04-30 19:20 | 48.36454 | 11.79087 | 1473 ft | 32 kts | 83° |
| 2026-04-30 19:20 | 48.36408 | 11.79384 | 1475 ft | 26 kts | 107° |
| 2026-04-30 19:20 | 48.36379 | 11.79507 | 1475 ft | 10 kts | 111° |
| 2026-04-30 19:21 | 48.36340 | 11.79646 | 1483 ft | 16 kts | 113° |
| 2026-04-30 19:21 | 48.36230 | 11.79645 | 1481 ft | 15 kts | 263° |
| 2026-04-30 19:22 | 48.36212 | 11.79510 | 1478 ft | 0 kts | 230° |
| 2026-04-30 19:22 | 48.36094 | 11.79480 | 1481 ft | 0 kts | 175° |
| 2026-04-30 19:23 | 48.35954 | 11.79502 | 1478 ft | 14 kts | 170° |
| 2026-04-30 19:24 | 48.35751 | 11.79542 | 1480 ft | 10 kts | 165° |
| 2026-04-30 19:24 | 48.35727 | 11.79626 | 1485 ft | 10 kts | 88° |
| 2026-04-30 19:24 | 48.35732 | 11.79694 | 1482 ft | 0 kts | 85° |